sensor_id;sensor_type;location;lat;lon;timestamp;pressure;altitude;pressure_sealevel;temperature;humidity
18985;BME280;9626;52.552;13.436;2023-07-29T00:01:45;100273.03;;;18.84;100.00
18985;BME280;9626;52.552;13.436;2023-07-29T00:04:12;100272.97;;;18.70;100.00
18985;BME280;9626;52.552;13.436;2023-07-29T00:06:38;100264.53;;;18.62;100.00
18985;BME280;9626;52.552;13.436;2023-07-29T00:09:04;100269.41;;;18.55;100.00
18985;BME280;9626;52.552;13.436;2023-07-29T00:11:30;100263.19;;;18.54;100.00
18985;BME280;9626;52.552;13.436;2023-07-29T00:13:56;100259.72;;;18.52;100.00
18985;BME280;9626;52.552;13.436;2023-07-29T00:16:22;100268.56;;;18.54;100.00
18985;BME280;9626;52.552;13.436;2023-07-29T00:18:48;100261.06;;;18.45;100.00
18985;BME280;9626;52.552;13.436;2023-07-29T00:21:14;100263.41;;;18.35;100.00
18985;BME280;9626;52.552;13.436;2023-07-29T00:23:40;100257.38;;;18.32;100.00
18985;BME280;9626;52.552;13.436;2023-07-29T00:26:07;100263.31;;;18.37;100.00
18985;BME280;9626;52.552;13.436;2023-07-29T00:28:32;100262.53;;;18.35;100.00
18985;BME280;9626;52.552;13.436;2023-07-29T00:30:58;100253.03;;;18.29;100.00
18985;BME280;9626;52.552;13.436;2023-07-29T00:33:25;100260.31;;;18.27;100.00
18985;BME280;9626;52.552;13.436;2023-07-29T00:35:51;100266.53;;;18.28;100.00
18985;BME280;9626;52.552;13.436;2023-07-29T00:38:16;100260.41;;;18.26;100.00
18985;BME280;9626;52.552;13.436;2023-07-29T00:40:42;100270.16;;;18.27;100.00
18985;BME280;9626;52.552;13.436;2023-07-29T00:43:08;100269.41;;;18.24;100.00
18985;BME280;9626;52.552;13.436;2023-07-29T00:45:35;100264.91;;;18.25;100.00
18985;BME280;9626;52.552;13.436;2023-07-29T00:48:02;100266.72;;;18.24;100.00
18985;BME280;9626;52.552;13.436;2023-07-29T00:50:29;100266.72;;;18.24;100.00
18985;BME280;9626;52.552;13.436;2023-07-29T00:52:57;100271.38;;;18.21;100.00
18985;BME280;9626;52.552;13.436;2023-07-29T00:55:23;100279.63;;;18.18;100.00
18985;BME280;9626;52.552;13.436;2023-07-29T00:57:51;100274.25;;;18.18;100.00
18985;BME280;9626;52.552;13.436;2023-07-29T01:00:19;100261.28;;;18.10;100.00
18985;BME280;9626;52.552;13.436;2023-07-29T01:02:45;100264.16;;;18.07;100.00
18985;BME280;9626;52.552;13.436;2023-07-29T01:05:13;100264.25;;;18.05;100.00
18985;BME280;9626;52.552;13.436;2023-07-29T01:13:26;100247.38;;;18.03;100.00
18985;BME280;9626;52.552;13.436;2023-07-29T01:16:03;100245.75;;;18.01;100.00
18985;BME280;9626;52.552;13.436;2023-07-29T01:18:35;100243.06;;;18.01;100.00
18985;BME280;9626;52.552;13.436;2023-07-29T01:21:03;100243.06;;;18.01;100.00
18985;BME280;9626;52.552;13.436;2023-07-29T01:23:36;100242.31;;;17.99;100.00
18985;BME280;9626;52.552;13.436;2023-07-29T01:26:03;100240.75;;;17.95;100.00
18985;BME280;9626;52.552;13.436;2023-07-29T01:28:29;100234.63;;;17.93;100.00
18985;BME280;9626;52.552;13.436;2023-07-29T01:31:18;100234.63;;;17.93;100.00
18985;BME280;9626;52.552;13.436;2023-07-29T01:34:11;100228.41;;;17.92;100.00
18985;BME280;9626;52.552;13.436;2023-07-29T01:36:41;100217.75;;;17.90;100.00
18985;BME280;9626;52.552;13.436;2023-07-29T01:39:09;100227.28;;;17.96;100.00
18985;BME280;9626;52.552;13.436;2023-07-29T01:41:37;100227.50;;;18.07;100.00
18985;BME280;9626;52.552;13.436;2023-07-29T01:44:04;100224.47;;;18.14;100.00
18985;BME280;9626;52.552;13.436;2023-07-29T01:46:33;100226.28;;;18.13;100.00
18985;BME280;9626;52.552;13.436;2023-07-29T01:48:59;100225.28;;;18.00;100.00
18985;BME280;9626;52.552;13.436;2023-07-29T01:51:25;100242.50;;;17.96;100.00
18985;BME280;9626;52.552;13.436;2023-07-29T01:53:51;100243.44;;;17.95;100.00
18985;BME280;9626;52.552;13.436;2023-07-29T01:56:17;100241.16;;;17.87;100.00
18985;BME280;9626;52.552;13.436;2023-07-29T01:58:43;100238.75;;;17.82;100.00
18985;BME280;9626;52.552;13.436;2023-07-29T02:01:09;100246.69;;;17.84;100.00
18985;BME280;9626;52.552;13.436;2023-07-29T02:03:35;100241.06;;;17.88;100.00
18985;BME280;9626;52.552;13.436;2023-07-29T02:06:01;100235.97;;;17.84;100.00
18985;BME280;9626;52.552;13.436;2023-07-29T02:08:27;100238.75;;;17.82;100.00
18985;BME280;9626;52.552;13.436;2023-07-29T02:10:53;100231.25;;;17.73;100.00
18985;BME280;9626;52.552;13.436;2023-07-29T02:13:19;100234.09;;;17.70;100.00
18985;BME280;9626;52.552;13.436;2023-07-29T02:15:45;100234.09;;;17.70;100.00
18985;BME280;9626;52.552;13.436;2023-07-29T02:18:11;100228.91;;;17.67;100.00
18985;BME280;9626;52.552;13.436;2023-07-29T02:20:37;100231.84;;;17.62;100.00
18985;BME280;9626;52.552;13.436;2023-07-29T02:23:03;100223.91;;;17.61;100.00
18985;BME280;9626;52.552;13.436;2023-07-29T02:25:30;100232.13;;;17.57;100.00
18985;BME280;9626;52.552;13.436;2023-07-29T02:27:56;100226.69;;;17.59;100.00
18985;BME280;9626;52.552;13.436;2023-07-29T02:30:22;100232.03;;;17.59;100.00
18985;BME280;9626;52.552;13.436;2023-07-29T02:32:48;100232.13;;;17.57;100.00
18985;BME280;9626;52.552;13.436;2023-07-29T02:35:14;100232.28;;;17.54;100.00
18985;BME280;9626;52.552;13.436;2023-07-29T02:37:40;100242.22;;;17.68;100.00
18985;BME280;9626;52.552;13.436;2023-07-29T02:40:07;100241.69;;;17.78;100.00
18985;BME280;9626;52.552;13.436;2023-07-29T02:42:33;100237.34;;;17.75;100.00
18985;BME280;9626;52.552;13.436;2023-07-29T02:44:59;100240.66;;;17.80;100.00
18985;BME280;9626;52.552;13.436;2023-07-29T02:47:25;100234.94;;;17.86;100.00
18985;BME280;9626;52.552;13.436;2023-07-29T02:49:51;100236.34;;;17.94;100.00
18985;BME280;9626;52.552;13.436;2023-07-29T02:52:17;100234.63;;;17.93;100.00
18985;BME280;9626;52.552;13.436;2023-07-29T02:54:43;100239.97;;;17.93;100.00
18985;BME280;9626;52.552;13.436;2023-07-29T02:57:09;100229.94;;;17.80;100.00
18985;BME280;9626;52.552;13.436;2023-07-29T02:59:35;100241.59;;;17.79;100.00
18985;BME280;9626;52.552;13.436;2023-07-29T03:02:01;100240.41;;;17.69;100.00
18985;BME280;9626;52.552;13.436;2023-07-29T03:04:27;100237.19;;;17.62;100.00
18985;BME280;9626;52.552;13.436;2023-07-29T03:06:53;100234.69;;;17.59;100.00
18985;BME280;9626;52.552;13.436;2023-07-29T03:09:19;100225.97;;;17.71;100.00
18985;BME280;9626;52.552;13.436;2023-07-29T03:11:45;100231.50;;;17.68;100.00
18985;BME280;9626;52.552;13.436;2023-07-29T03:14:11;100225.22;;;17.53;100.00
18985;BME280;9626;52.552;13.436;2023-07-29T03:16:38;100234.50;;;17.46;100.00
18985;BME280;9626;52.552;13.436;2023-07-29T03:19:04;100225.91;;;17.41;100.00
18985;BME280;9626;52.552;13.436;2023-07-29T03:21:32;100222.50;;;17.37;100.00
18985;BME280;9626;52.552;13.436;2023-07-29T03:23:58;100221.91;;;17.32;100.00
18985;BME280;9626;52.552;13.436;2023-07-29T03:26:24;100225.44;;;17.33;100.00
18985;BME280;9626;52.552;13.436;2023-07-29T03:28:51;100233.56;;;17.47;100.00
18985;BME280;9626;52.552;13.436;2023-07-29T03:31:17;100232.53;;;17.50;100.00
18985;BME280;9626;52.552;13.436;2023-07-29T03:33:43;100222.34;;;17.40;100.00
18985;BME280;9626;52.552;13.436;2023-07-29T03:36:09;100229.59;;;17.38;100.00
18985;BME280;9626;52.552;13.436;2023-07-29T03:38:35;100223.13;;;17.43;100.00
18985;BME280;9626;52.552;13.436;2023-07-29T03:41:07;100223.22;;;17.41;100.00
18985;BME280;9626;52.552;13.436;2023-07-29T03:43:34;100215.34;;;17.38;100.00
18985;BME280;9626;52.552;13.436;2023-07-29T03:46:00;100211.91;;;17.36;100.00
18985;BME280;9626;52.552;13.436;2023-07-29T03:48:26;100217.34;;;17.34;100.00
18985;BME280;9626;52.552;13.436;2023-07-29T03:50:52;100217.34;;;17.34;100.00
18985;BME280;9626;52.552;13.436;2023-07-29T03:53:18;100217.50;;;17.31;100.00
18985;BME280;9626;52.552;13.436;2023-07-29T03:55:44;100206.69;;;17.33;100.00
18985;BME280;9626;52.552;13.436;2023-07-29T03:58:11;100210.88;;;17.38;100.00
18985;BME280;9626;52.552;13.436;2023-07-29T04:00:40;100213.38;;;17.42;100.00
18985;BME280;9626;52.552;13.436;2023-07-29T04:03:05;100214.31;;;17.40;100.00
18985;BME280;9626;52.552;13.436;2023-07-29T04:05:31;100211.44;;;17.44;100.00
18985;BME280;9626;52.552;13.436;2023-07-29T04:07:57;100217.88;;;17.41;100.00
18985;BME280;9626;52.552;13.436;2023-07-29T04:10:23;100218.81;;;17.40;100.00
18985;BME280;9626;52.552;13.436;2023-07-29T04:12:50;100223.22;;;17.41;100.00
18985;BME280;9626;52.552;13.436;2023-07-29T04:15:16;100220.69;;;17.38;100.00
18985;BME280;9626;52.552;13.436;2023-07-29T04:17:42;100212.53;;;17.41;100.00
18985;BME280;9626;52.552;13.436;2023-07-29T04:20:08;100216.13;;;17.40;100.00
18985;BME280;9626;52.552;13.436;2023-07-29T04:22:34;100210.78;;;17.40;100.00
18985;BME280;9626;52.552;13.436;2023-07-29T04:25:00;100211.53;;;17.42;100.00
18985;BME280;9626;52.552;13.436;2023-07-29T04:27:26;100211.53;;;17.42;100.00
18985;BME280;9626;52.552;13.436;2023-07-29T04:29:53;100206.03;;;17.45;100.00
18985;BME280;9626;52.552;13.436;2023-07-29T04:32:19;100206.91;;;17.46;100.00
18985;BME280;9626;52.552;13.436;2023-07-29T04:34:45;100207.66;;;17.48;100.00
18985;BME280;9626;52.552;13.436;2023-07-29T04:37:11;100206.63;;;17.50;100.00
18985;BME280;9626;52.552;13.436;2023-07-29T04:39:37;100214.50;;;17.53;100.00
18985;BME280;9626;52.552;13.436;2023-07-29T04:42:03;100211.66;;;17.56;100.00
18985;BME280;9626;52.552;13.436;2023-07-29T04:44:29;100205.16;;;17.61;100.00
18985;BME280;9626;52.552;13.436;2023-07-29T04:46:55;100209.41;;;17.65;100.00
18985;BME280;9626;52.552;13.436;2023-07-29T04:49:21;100215.44;;;17.68;100.00
18985;BME280;9626;52.552;13.436;2023-07-29T04:51:47;100211.56;;;17.74;100.00
18985;BME280;9626;52.552;13.436;2023-07-29T04:54:13;100221.28;;;17.75;100.00
18985;BME280;9626;52.552;13.436;2023-07-29T04:56:39;100217.50;;;17.79;100.00
18985;BME280;9626;52.552;13.436;2023-07-29T04:59:05;100216.41;;;17.83;100.00
18985;BME280;9626;52.552;13.436;2023-07-29T05:01:34;100215.06;;;17.90;100.00
18985;BME280;9626;52.552;13.436;2023-07-29T05:04:00;100208.72;;;17.93;100.00
18985;BME280;9626;52.552;13.436;2023-07-29T05:06:26;100212.94;;;17.97;100.00
18985;BME280;9626;52.552;13.436;2023-07-29T05:08:52;100210.94;;;18.01;100.00
18985;BME280;9626;52.552;13.436;2023-07-29T05:11:18;100209.03;;;18.03;100.00
18985;BME280;9626;52.552;13.436;2023-07-29T05:13:44;100210.78;;;18.04;100.00
18985;BME280;9626;52.552;13.436;2023-07-29T05:16:11;100206.16;;;18.06;100.00
18985;BME280;9626;52.552;13.436;2023-07-29T05:18:39;100201.59;;;18.08;100.00
18985;BME280;9626;52.552;13.436;2023-07-29T05:21:05;100204.00;;;18.13;100.00
18985;BME280;9626;52.552;13.436;2023-07-29T05:23:31;100201.03;;;18.17;100.00
18985;BME280;9626;52.552;13.436;2023-07-29T05:25:57;100195.31;;;18.23;100.00
18985;BME280;9626;52.552;13.436;2023-07-29T05:28:24;100201.38;;;18.27;100.00
18985;BME280;9626;52.552;13.436;2023-07-29T05:30:50;100194.59;;;18.36;100.00
18985;BME280;9626;52.552;13.436;2023-07-29T05:33:16;100192.50;;;18.41;100.00
18985;BME280;9626;52.552;13.436;2023-07-29T05:35:42;100193.00;;;18.48;100.00
18985;BME280;9626;52.552;13.436;2023-07-29T05:38:08;100202.38;;;18.55;100.00
18985;BME280;9626;52.552;13.436;2023-07-29T05:40:34;100192.50;;;18.55;100.00
18985;BME280;9626;52.552;13.436;2023-07-29T05:43:00;100189.66;;;18.58;100.00
18985;BME280;9626;52.552;13.436;2023-07-29T05:45:26;100188.13;;;18.54;100.00
18985;BME280;9626;52.552;13.436;2023-07-29T05:47:52;100197.13;;;18.53;100.00
18985;BME280;9626;52.552;13.436;2023-07-29T05:50:19;100200.75;;;18.52;100.00
18985;BME280;9626;52.552;13.436;2023-07-29T05:52:45;100207.84;;;18.53;100.00
18985;BME280;9626;52.552;13.436;2023-07-29T05:55:11;100200.75;;;18.52;100.00
18985;BME280;9626;52.552;13.436;2023-07-29T05:57:37;100189.06;;;18.53;100.00
18985;BME280;9626;52.552;13.436;2023-07-29T06:00:04;100197.63;;;18.60;100.00
18985;BME280;9626;52.552;13.436;2023-07-29T06:02:30;100189.06;;;18.68;100.00
18985;BME280;9626;52.552;13.436;2023-07-29T06:04:56;100187.56;;;18.78;100.00
18985;BME280;9626;52.552;13.436;2023-07-29T06:07:22;100183.00;;;18.80;100.00
18985;BME280;9626;52.552;13.436;2023-07-29T06:09:48;100178.47;;;18.81;100.00
18985;BME280;9626;52.552;13.436;2023-07-29T06:12:14;100171.69;;;18.89;100.00
18985;BME280;9626;52.552;13.436;2023-07-29T06:14:40;100165.00;;;18.97;100.00
18985;BME280;9626;52.552;13.436;2023-07-29T06:17:06;100152.91;;;19.04;100.00
18985;BME280;9626;52.552;13.436;2023-07-29T06:19:32;100150.13;;;19.05;100.00
18985;BME280;9626;52.552;13.436;2023-07-29T06:21:58;100155.88;;;19.14;100.00
18985;BME280;9626;52.552;13.436;2023-07-29T06:24:25;100153.88;;;19.17;100.00
18985;BME280;9626;52.552;13.436;2023-07-29T06:26:51;100156.34;;;19.20;100.00
18985;BME280;9626;52.552;13.436;2023-07-29T06:29:17;100154.34;;;19.24;100.00
18985;BME280;9626;52.552;13.436;2023-07-29T06:31:43;100158.66;;;19.27;100.00
18985;BME280;9626;52.552;13.436;2023-07-29T06:34:09;100155.34;;;19.36;100.00
18985;BME280;9626;52.552;13.436;2023-07-29T06:36:35;100162.75;;;19.32;100.00
18985;BME280;9626;52.552;13.436;2023-07-29T06:39:01;100162.44;;;19.37;100.00
18985;BME280;9626;52.552;13.436;2023-07-29T06:41:27;100159.38;;;19.43;100.00
18985;BME280;9626;52.552;13.436;2023-07-29T06:43:53;100162.06;;;19.43;100.00
18985;BME280;9626;52.552;13.436;2023-07-29T06:46:19;100168.06;;;19.47;100.00
18985;BME280;9626;52.552;13.436;2023-07-29T06:48:45;100165.38;;;19.47;100.00
18985;BME280;9626;52.552;13.436;2023-07-29T06:51:11;100167.56;;;19.54;100.00
18985;BME280;9626;52.552;13.436;2023-07-29T06:53:37;100163.75;;;19.71;100.00
18985;BME280;9626;52.552;13.436;2023-07-29T06:56:03;100150.31;;;19.86;100.00
18985;BME280;9626;52.552;13.436;2023-07-29T06:58:30;100160.47;;;19.95;100.00
18985;BME280;9626;52.552;13.436;2023-07-29T07:00:56;100156.38;;;20.02;100.00
18985;BME280;9626;52.552;13.436;2023-07-29T07:03:22;100167.34;;;20.12;100.00
18985;BME280;9626;52.552;13.436;2023-07-29T07:05:48;100170.38;;;20.20;100.00
18985;BME280;9626;52.552;13.436;2023-07-29T07:08:14;100168.47;;;20.22;100.00
18985;BME280;9626;52.552;13.436;2023-07-29T07:10:40;100179.00;;;20.25;100.00
18985;BME280;9626;52.552;13.436;2023-07-29T07:13:06;100179.56;;;20.31;100.00
18985;BME280;9626;52.552;13.436;2023-07-29T07:15:32;100174.59;;;20.24;100.00
18985;BME280;9626;52.552;13.436;2023-07-29T07:17:58;100168.03;;;20.29;100.00
18985;BME280;9626;52.552;13.436;2023-07-29T07:20:24;100174.84;;;20.34;100.00
18985;BME280;9626;52.552;13.436;2023-07-29T07:22:50;100175.81;;;20.33;100.00
18985;BME280;9626;52.552;13.436;2023-07-29T07:25:16;100176.34;;;20.38;100.00
18985;BME280;9626;52.552;13.436;2023-07-29T07:27:42;100175.91;;;20.32;100.00
18985;BME280;9626;52.552;13.436;2023-07-29T07:30:09;100171.28;;;20.34;100.00
18985;BME280;9626;52.552;13.436;2023-07-29T07:32:35;100171.50;;;20.43;100.00
18985;BME280;9626;52.552;13.436;2023-07-29T07:35:02;100175.28;;;20.54;100.00
18985;BME280;9626;52.552;13.436;2023-07-29T07:37:28;100172.16;;;20.47;100.00
18985;BME280;9626;52.552;13.436;2023-07-29T07:39:54;100173.13;;;20.46;100.00
18985;BME280;9626;52.552;13.436;2023-07-29T07:42:20;100165.50;;;20.40;100.00
18985;BME280;9626;52.552;13.436;2023-07-29T07:44:46;100166.44;;;20.39;100.00
18985;BME280;9626;52.552;13.436;2023-07-29T07:47:12;100156.78;;;20.49;100.00
18985;BME280;9626;52.552;13.436;2023-07-29T07:49:38;100153.25;;;20.62;100.00
18985;BME280;9626;52.552;13.436;2023-07-29T07:52:04;100156.56;;;20.65;100.00
18985;BME280;9626;52.552;13.436;2023-07-29T07:54:30;100148.47;;;20.65;100.00
18985;BME280;9626;52.552;13.436;2023-07-29T07:56:56;100149.66;;;20.61;100.00
18985;BME280;9626;52.552;13.436;2023-07-29T07:59:22;100144.84;;;20.66;100.00
18985;BME280;9626;52.552;13.436;2023-07-29T08:01:48;100135.38;;;20.73;100.00
18985;BME280;9626;52.552;13.436;2023-07-29T08:04:14;100131.50;;;20.90;100.00
18985;BME280;9626;52.552;13.436;2023-07-29T08:06:40;100128.34;;;20.97;100.00
18985;BME280;9626;52.552;13.436;2023-07-29T08:09:06;100133.44;;;21.01;100.00
18985;BME280;9626;52.552;13.436;2023-07-29T08:11:32;100135.75;;;21.19;100.00
18985;BME280;9626;52.552;13.436;2023-07-29T08:13:58;100140.31;;;21.42;100.00
18985;BME280;9626;52.552;13.436;2023-07-29T08:16:24;100132.09;;;21.44;100.00
18985;BME280;9626;52.552;13.436;2023-07-29T08:18:50;100133.00;;;21.32;100.00
18985;BME280;9626;52.552;13.436;2023-07-29T08:21:16;100134.06;;;21.42;100.00
18985;BME280;9626;52.552;13.436;2023-07-29T08:23:42;100139.75;;;21.50;100.00
18985;BME280;9626;52.552;13.436;2023-07-29T08:26:08;100131.56;;;21.39;100.00
18985;BME280;9626;52.552;13.436;2023-07-29T08:28:36;100132.72;;;21.60;100.00
18985;BME280;9626;52.552;13.436;2023-07-29T08:31:03;100136.44;;;21.71;100.00
18985;BME280;9626;52.552;13.436;2023-07-29T08:33:29;100130.75;;;21.87;100.00
18985;BME280;9626;52.552;13.436;2023-07-29T08:35:56;100132.63;;;21.98;100.00
18985;BME280;9626;52.552;13.436;2023-07-29T08:38:22;100136.41;;;21.95;100.00
18985;BME280;9626;52.552;13.436;2023-07-29T08:43:29;100121.84;;;21.98;100.00
18985;BME280;9626;52.552;13.436;2023-07-29T08:45:59;100113.16;;;22.05;100.00
18985;BME280;9626;52.552;13.436;2023-07-29T08:48:42;100117.59;;;22.06;100.00
18985;BME280;9626;52.552;13.436;2023-07-29T08:51:12;100115.22;;;22.02;100.00
18985;BME280;9626;52.552;13.436;2023-07-29T08:53:38;100110.84;;;22.01;100.00
18985;BME280;9626;52.552;13.436;2023-07-29T08:56:06;100120.34;;;21.93;100.00
18985;BME280;9626;52.552;13.436;2023-07-29T08:58:33;100120.59;;;21.90;100.00
18985;BME280;9626;52.552;13.436;2023-07-29T09:00:59;100115.44;;;21.87;100.00
18985;BME280;9626;52.552;13.436;2023-07-29T09:03:25;100110.06;;;21.87;100.00
18985;BME280;9626;52.552;13.436;2023-07-29T09:05:52;100117.63;;;21.82;100.00
18985;BME280;9626;52.552;13.436;2023-07-29T09:08:19;100119.38;;;21.94;100.00
18985;BME280;9626;52.552;13.436;2023-07-29T09:10:45;100122.50;;;22.12;100.00
18985;BME280;9626;52.552;13.436;2023-07-29T09:13:11;100099.13;;;22.24;100.00
18985;BME280;9626;52.552;13.436;2023-07-29T09:15:37;100108.25;;;22.35;100.00
18985;BME280;9626;52.552;13.436;2023-07-29T09:18:19;100103.72;;;22.35;100.00
18985;BME280;9626;52.552;13.436;2023-07-29T09:20:47;100103.59;;;22.37;100.00
18985;BME280;9626;52.552;13.436;2023-07-29T09:23:13;100095.22;;;22.28;100.00
18985;BME280;9626;52.552;13.436;2023-07-29T09:25:40;100086.31;;;22.39;100.00
18985;BME280;9626;52.552;13.436;2023-07-29T09:28:11;100091.84;;;22.49;100.00
18985;BME280;9626;52.552;13.436;2023-07-29T09:30:38;100082.25;;;22.56;100.00
18985;BME280;9626;52.552;13.436;2023-07-29T09:33:05;100093.91;;;22.68;100.00
18985;BME280;9626;52.552;13.436;2023-07-29T09:35:36;100090.97;;;22.71;100.00
18985;BME280;9626;52.552;13.436;2023-07-29T09:38:03;100085.69;;;22.70;100.00
18985;BME280;9626;52.552;13.436;2023-07-29T09:40:37;100083.25;;;22.78;100.00
18985;BME280;9626;52.552;13.436;2023-07-29T09:43:03;100077.50;;;22.60;100.00
18985;BME280;9626;52.552;13.436;2023-07-29T09:45:30;100074.94;;;22.47;100.00
18985;BME280;9626;52.552;13.436;2023-07-29T09:47:58;100070.50;;;22.46;100.00
18985;BME280;9626;52.552;13.436;2023-07-29T09:50:25;100067.94;;;22.56;100.00
18985;BME280;9626;52.552;13.436;2023-07-29T09:52:54;100073.06;;;22.59;100.00
18985;BME280;9626;52.552;13.436;2023-07-29T09:55:23;100065.47;;;22.75;100.00
18985;BME280;9626;52.552;13.436;2023-07-29T09:58:02;100064.47;;;22.76;100.00
18985;BME280;9626;52.552;13.436;2023-07-29T10:00:32;100063.63;;;22.76;100.00
18985;BME280;9626;52.552;13.436;2023-07-29T10:02:58;100067.31;;;22.75;100.00
18985;BME280;9626;52.552;13.436;2023-07-29T10:05:28;100049.28;;;22.64;100.00
18985;BME280;9626;52.552;13.436;2023-07-29T10:07:56;100049.03;;;22.67;100.00
18985;BME280;9626;52.552;13.436;2023-07-29T10:10:22;100050.63;;;22.81;100.00
18985;BME280;9626;52.552;13.436;2023-07-29T10:12:50;100056.03;;;22.81;100.00
18985;BME280;9626;52.552;13.436;2023-07-29T10:15:17;100042.19;;;22.74;100.00
18985;BME280;9626;52.552;13.436;2023-07-29T10:17:43;100043.28;;;22.49;100.00
18985;BME280;9626;52.552;13.436;2023-07-29T10:20:11;100047.97;;;22.47;100.00
18985;BME280;9626;52.552;13.436;2023-07-29T10:22:41;100033.84;;;22.55;100.00
18985;BME280;9626;52.552;13.436;2023-07-29T10:25:18;100045.25;;;22.58;100.00
18985;BME280;9626;52.552;13.436;2023-07-29T10:27:49;100039.09;;;22.79;100.00
18985;BME280;9626;52.552;13.436;2023-07-29T10:30:18;100038.38;;;22.77;100.00
18985;BME280;9626;52.552;13.436;2023-07-29T10:32:45;100039.84;;;22.70;100.00
18985;BME280;9626;52.552;13.436;2023-07-29T10:35:12;100022.69;;;22.59;100.00
18985;BME280;9626;52.552;13.436;2023-07-29T10:37:39;100018.28;;;22.58;100.00
18985;BME280;9626;52.552;13.436;2023-07-29T10:40:07;100017.44;;;22.58;100.00
18985;BME280;9626;52.552;13.436;2023-07-29T10:42:33;100007.09;;;22.74;100.00
18985;BME280;9626;52.552;13.436;2023-07-29T10:45:00;100004.28;;;22.76;100.00
18985;BME280;9626;52.552;13.436;2023-07-29T10:47:28;100001.34;;;22.68;100.00
18985;BME280;9626;52.552;13.436;2023-07-29T10:49:57;99993.97;;;22.70;100.00
18985;BME280;9626;52.552;13.436;2023-07-29T10:55:01;99981.06;;;22.85;100.00
18985;BME280;9626;52.552;13.436;2023-07-29T10:59:59;99986.31;;;22.86;100.00
18985;BME280;9626;52.552;13.436;2023-07-29T11:02:35;99992.88;;;22.72;100.00
18985;BME280;9626;52.552;13.436;2023-07-29T11:05:06;99997.53;;;22.70;100.00
18985;BME280;9626;52.552;13.436;2023-07-29T11:07:47;100006.00;;;22.77;100.00
18985;BME280;9626;52.552;13.436;2023-07-29T11:10:14;99999.13;;;22.73;100.00
18985;BME280;9626;52.552;13.436;2023-07-29T11:12:47;99998.75;;;22.77;100.00
18985;BME280;9626;52.552;13.436;2023-07-29T11:15:22;100003.06;;;22.69;100.00
18985;BME280;9626;52.552;13.436;2023-07-29T11:17:59;100009.16;;;22.82;100.00
18985;BME280;9626;52.552;13.436;2023-07-29T11:20:30;100019.13;;;22.48;100.00
18985;BME280;9626;52.552;13.436;2023-07-29T11:22:59;100080.97;;;20.44;100.00
18985;BME280;9626;52.552;13.436;2023-07-29T11:25:27;100129.38;;;19.64;100.00
18985;BME280;9626;52.552;13.436;2023-07-29T11:27:55;100109.91;;;19.33;100.00
18985;BME280;9626;52.552;13.436;2023-07-29T11:30:21;100105.47;;;19.04;100.00
18985;BME280;9626;52.552;13.436;2023-07-29T11:32:53;100100.81;;;18.79;100.00
18985;BME280;9626;52.552;13.436;2023-07-29T11:35:20;100090.66;;;18.55;100.00
18985;BME280;9626;52.552;13.436;2023-07-29T11:37:49;100088.16;;;18.52;100.00
18985;BME280;9626;52.552;13.436;2023-07-29T11:40:17;100085.88;;;18.61;100.00
18985;BME280;9626;52.552;13.436;2023-07-29T11:42:44;100101.59;;;18.67;100.00
18985;BME280;9626;52.552;13.436;2023-07-29T11:45:12;100106.91;;;18.81;100.00
18985;BME280;9626;52.552;13.436;2023-07-29T11:47:38;100098.91;;;18.96;100.00
18985;BME280;9626;52.552;13.436;2023-07-29T11:50:06;100099.84;;;18.95;100.00
18985;BME280;9626;52.552;13.436;2023-07-29T11:52:33;100096.59;;;19.04;100.00
18985;BME280;9626;52.552;13.436;2023-07-29T11:55:00;100097.63;;;19.16;100.00
18985;BME280;9626;52.552;13.436;2023-07-29T11:57:27;100090.78;;;19.24;100.00
18985;BME280;9626;52.552;13.436;2023-07-29T11:59:54;100084.34;;;19.27;100.00
18985;BME280;9626;52.552;13.436;2023-07-29T12:02:20;100092.97;;;19.32;100.00
18985;BME280;9626;52.552;13.436;2023-07-29T12:04:48;100065.25;;;19.32;100.00
18985;BME280;9626;52.552;13.436;2023-07-29T12:07:16;100074.06;;;19.34;100.00
18985;BME280;9626;52.552;13.436;2023-07-29T12:09:42;100065.59;;;19.40;100.00
18985;BME280;9626;52.552;13.436;2023-07-29T12:12:09;100071.75;;;19.42;100.00
18985;BME280;9626;52.552;13.436;2023-07-29T12:14:35;100080.16;;;19.50;100.00
18985;BME280;9626;52.552;13.436;2023-07-29T12:17:04;100078.88;;;19.56;100.00
18985;BME280;9626;52.552;13.436;2023-07-29T12:19:36;100076.28;;;19.54;100.00
18985;BME280;9626;52.552;13.436;2023-07-29T12:22:03;100074.47;;;19.55;100.00
18985;BME280;9626;52.552;13.436;2023-07-29T12:24:30;100082.13;;;19.61;100.00
18985;BME280;9626;52.552;13.436;2023-07-29T12:26:57;100082.13;;;19.61;100.00
18985;BME280;9626;52.552;13.436;2023-07-29T12:29:23;100085.53;;;19.63;100.00
18985;BME280;9626;52.552;13.436;2023-07-29T12:31:57;100078.03;;;19.55;100.00
18985;BME280;9626;52.552;13.436;2023-07-29T12:34:25;100075.69;;;19.64;100.00
18985;BME280;9626;52.552;13.436;2023-07-29T12:36:53;100078.03;;;19.68;100.00
18985;BME280;9626;52.552;13.436;2023-07-29T12:41:48;100071.88;;;19.81;100.00
18985;BME280;9626;52.552;13.436;2023-07-29T12:44:15;100068.47;;;19.91;100.00
18985;BME280;9626;52.552;13.436;2023-07-29T12:46:41;100063.41;;;20.00;100.00
18985;BME280;9626;52.552;13.436;2023-07-29T12:49:08;100058.81;;;20.15;100.00
18985;BME280;9626;52.552;13.436;2023-07-29T12:51:34;100058.06;;;20.25;100.00
18985;BME280;9626;52.552;13.436;2023-07-29T12:54:02;100054.94;;;20.32;100.00
18985;BME280;9626;52.552;13.436;2023-07-29T12:56:29;100031.25;;;20.37;100.00